To NAV CANADA Home Page Login to a new session Search on AWWS site Feedback and Comments Disclaimer Vers la page française équivalente Tips FAQ What's new on the site To the Forecasts and Observations / NOTAM section To "File a Flight Plan" website Publications and other links Update of the User's profile FIC Telephone Numbers My Weather Data Folder Route Weather Data Regional Weather Data Local Weather Data To the Forecasts and Observations / NOTAM section
Request Generated 04/25/2014 at 02:24:05 UTC . Weather information available at that time is displayed.

METAR/TAF

TALOYOAK/NU    

METAR CYYH 250200Z 32013KT 15SM FEW090 M19/M22 A3036 RMK AC0 SLP285=
METAR CYYH 250100Z 31009KT 15SM FEW070 M18/M22 A3036 RMK AC1 SLP286=
METAR CYYH 250000Z 28003KT 15SM FEW090 M16/M19 A3036 RMK AC1 SLP285=

TAF CYYH 242338Z 2500/2512 30010KT P6SM SKC
RMK NXT FCST BY 250600Z=
Your time UTC time
Weather data provided by Environment Canada and NAV CANADA